Terminal Aerodrome Forecast
Issued by NWS

Home | Current Version | Previous Version | Graphics & Text | Print | Product List | Glossary On
Versions: 1 2 3 4 5 6 7 8 9 10 11 12 13 14 15
197
FTUS43 KBIS 181726
TAFMOT
TAF
KMOT 181726Z 1818/1918 36015G23KT P6SM OVC009
     FM182000 36016G24KT P6SM VCSH OVC010
     FM182200 01016G24KT P6SM VCSH OVC020
     FM190000 01016G24KT P6SM OVC060
     FM190400 36010KT P6SM BKN250
     FM191600 03009KT P6SM FEW250=

USA.gov is the U.S. government's official web portal to all federal, state and local government web resources and services.